Time;durP1;ratioP1;P1;durP2;ratioP2;P2;SDS_P1;SDS_P2;PMS_P1;PMS_P2;Temp;Humidity;BMP_temperature;BMP_pressure;BME280_temperature;BME280_humidity;BME280_pressure;Samples;Min_cycle;Max_cycle;Signal;HPM_P1;HPM_P2
2023/10/25 00:00:08;;;;;;;30.43;27.23;;;13.40;99.90;;;;;;4851943;29;20184;-48
2023/10/25 00:02:34;;;;;;;31.67;27.20;;;13.40;99.90;;;;;;4835228;29;20207;-51
2023/10/25 00:05:00;;;;;;;28.30;25.33;;;13.40;99.90;;;;;;4860821;29;20452;-52
2023/10/25 00:07:26;;;;;;;29.53;25.77;;;13.40;99.90;;;;;;4856578;29;20465;-44
2023/10/25 00:09:51;;;;;;;28.47;25.53;;;13.40;99.90;;;;;;4867556;29;20194;-48
2023/10/25 00:12:17;;;;;;;29.33;26.30;;;13.40;99.90;;;;;;4862103;29;20292;-50
2023/10/25 00:14:42;;;;;;;29.47;26.50;;;13.40;99.90;;;;;;4861558;29;20536;-51
2023/10/25 00:17:08;;;;;;;29.60;26.57;;;13.40;99.90;;;;;;4850482;29;20197;-52
2023/10/25 00:19:34;;;;;;;28.63;25.67;;;13.40;99.90;;;;;;4867650;29;20196;-54
2023/10/25 00:21:59;;;;;;;27.90;25.00;;;13.40;99.90;;;;;;4856565;29;20651;-51
2023/10/25 00:24:26;;;;;;;28.10;25.30;;;13.40;99.90;;;;;;4852970;29;20284;-53
2023/10/25 00:26:51;;;;;;;27.30;24.57;;;13.40;99.90;;;;;;4852655;29;20204;-51
2023/10/25 00:29:17;;;;;;;28.57;25.13;;;13.40;99.90;;;;;;4863862;29;20449;-49
2023/10/25 00:31:43;;;;;;;28.73;25.70;;;13.40;99.90;;;;;;4854763;29;20212;-50
2023/10/25 00:34:08;;;;;;;27.47;24.80;;;13.40;99.90;;;;;;4864435;29;20188;-50
2023/10/25 00:36:34;;;;;;;28.57;25.77;;;13.40;99.90;;;;;;4855922;29;20232;-49
2023/10/25 00:39:00;;;;;;;28.63;25.80;;;13.40;99.90;;;;;;4866948;29;20440;-49
2023/10/25 00:41:25;;;;;;;27.57;24.87;;;13.40;99.90;;;;;;4863148;29;20204;-50
2023/10/25 00:43:51;;;;;;;28.57;25.80;;;13.40;99.90;;;;;;4855216;29;20977;-53
2023/10/25 00:46:28;;;;;;;27.03;24.40;;;13.40;99.90;;;;;;4865433;29;20199;-51
2023/10/25 00:48:59;;;;;;;27.07;24.17;;;13.40;99.90;;;;;;4854346;29;20200;-47
2023/10/25 00:51:26;;;;;;;27.60;24.60;;;13.40;99.90;;;;;;4863905;29;21076;-50
2023/10/25 00:53:54;;;;;;;27.60;24.90;;;13.40;99.90;;;;;;4851161;29;20449;-48
2023/10/25 00:56:24;;;;;;;26.27;23.50;;;13.40;99.90;;;;;;4854361;29;20451;-50
2023/10/25 00:58:53;;;;;;;25.90;23.37;;;13.40;99.90;;;;;;4856496;29;20524;-51
2023/10/25 01:01:19;;;;;;;26.40;23.70;;;13.40;99.90;;;;;;4849284;29;20898;-50
2023/10/25 01:03:45;;;;;;;27.23;24.50;;;13.40;99.90;;;;;;4850278;29;20468;-47
2023/10/25 01:06:11;;;;;;;26.53;24.03;;;13.40;99.90;;;;;;4865044;29;20436;-52
2023/10/25 01:08:37;;;;;;;26.57;23.87;;;13.40;99.90;;;;;;4860971;29;20641;-51
2023/10/25 01:11:03;;;;;;;26.07;23.60;;;13.40;99.90;;;;;;4862438;29;20274;-49
2023/10/25 01:13:29;;;;;;;25.50;23.00;;;13.30;99.90;;;;;;4854374;29;20485;-52
2023/10/25 01:15:54;;;;;;;26.13;23.40;;;13.30;99.90;;;;;;4850389;29;21195;-54
2023/10/25 01:18:20;;;;;;;26.53;23.90;;;13.30;99.90;;;;;;4864147;29;20192;-49
2023/10/25 01:20:46;;;;;;;26.63;23.80;;;13.30;99.90;;;;;;4866661;29;20196;-52
2023/10/25 01:23:12;;;;;;;25.20;22.40;;;13.30;99.90;;;;;;4853422;29;20257;-51
2023/10/25 01:25:39;;;;;;;27.10;24.23;;;13.30;99.90;;;;;;4856260;29;20445;-51
2023/10/25 01:28:05;;;;;;;26.07;23.40;;;13.30;99.90;;;;;;4856361;29;20460;-52
2023/10/25 01:30:31;;;;;;;26.43;23.73;;;13.30;99.90;;;;;;4859416;29;20452;-46
2023/10/25 01:32:58;;;;;;;26.73;23.97;;;13.30;99.90;;;;;;4854944;29;20817;-52
2023/10/25 01:35:24;;;;;;;25.43;22.83;;;13.30;99.90;;;;;;4863148;29;20199;-49
2023/10/25 01:37:50;;;;;;;24.80;22.27;;;13.30;99.90;;;;;;4860199;29;20480;-53
2023/10/25 01:40:16;;;;;;;24.40;22.10;;;13.30;99.90;;;;;;4840421;29;20545;-50
2023/10/25 01:42:43;;;;;;;24.90;22.47;;;13.30;99.90;;;;;;4861189;29;20188;-52
2023/10/25 01:45:09;;;;;;;24.10;21.87;;;13.30;99.90;;;;;;4861733;29;20444;-50
2023/10/25 01:47:34;;;;;;;23.80;21.50;;;13.20;99.90;;;;;;4848494;29;21170;-48
2023/10/25 01:50:00;;;;;;;23.40;21.37;;;13.30;99.90;;;;;;4864814;29;20452;-53
2023/10/25 01:52:26;;;;;;;24.10;21.90;;;13.20;99.90;;;;;;4864852;29;20227;-45
2023/10/25 01:54:51;;;;;;;25.10;22.73;;;13.20;99.90;;;;;;4861453;29;20245;-53
2023/10/25 01:57:17;;;;;;;25.27;22.80;;;13.20;99.90;;;;;;4843637;29;20188;-50
2023/10/25 01:59:44;;;;;;;23.80;21.53;;;13.20;99.90;;;;;;4854222;29;20184;-51
2023/10/25 02:02:10;;;;;;;23.43;21.03;;;13.20;99.90;;;;;;4854513;29;20490;-49
2023/10/25 02:04:36;;;;;;;25.17;22.57;;;13.20;99.90;;;;;;4862977;29;20531;-50
2023/10/25 02:07:02;;;;;;;23.53;21.40;;;13.20;99.90;;;;;;4866478;29;20576;-53
2023/10/25 02:09:28;;;;;;;24.70;22.50;;;13.20;99.90;;;;;;4862333;29;20204;-50
2023/10/25 02:11:53;;;;;;;23.30;21.03;;;13.20;99.90;;;;;;4871744;29;20502;-51
2023/10/25 02:14:19;;;;;;;23.43;20.97;;;13.20;99.90;;;;;;4863078;29;20444;-52
2023/10/25 02:16:45;;;;;;;22.23;19.93;;;13.20;99.90;;;;;;4844347;29;20192;-49
2023/10/25 02:19:10;;;;;;;22.07;20.27;;;13.20;99.90;;;;;;4862828;29;20188;-47
2023/10/25 02:21:36;;;;;;;23.80;21.53;;;13.30;99.90;;;;;;4859293;29;20200;-49
2023/10/25 02:24:03;;;;;;;22.43;20.53;;;13.20;99.90;;;;;;4860156;29;20227;-50
2023/10/25 02:26:28;;;;;;;20.13;18.50;;;13.30;99.90;;;;;;4855205;29;20212;-48
2023/10/25 02:28:55;;;;;;;20.97;19.10;;;13.30;99.90;;;;;;4870358;29;20482;-54
2023/10/25 02:31:21;;;;;;;20.37;18.43;;;13.30;99.90;;;;;;4871760;29;20290;-50
2023/10/25 02:33:46;;;;;;;21.27;19.47;;;13.30;99.90;;;;;;4865163;29;20878;-46
2023/10/25 02:36:12;;;;;;;21.67;19.67;;;13.30;99.90;;;;;;4867247;29;20200;-51
2023/10/25 02:38:38;;;;;;;22.57;20.27;;;13.30;99.90;;;;;;4867336;29;20655;-48
2023/10/25 02:41:03;;;;;;;21.17;19.37;;;13.30;99.90;;;;;;4860844;29;20249;-51
2023/10/25 02:43:29;;;;;;;20.80;19.00;;;13.30;99.90;;;;;;4864647;29;20557;-49
2023/10/25 02:46:02;;;;;;;22.33;20.33;;;13.30;99.90;;;;;;4864550;29;20259;-49
2023/10/25 02:48:28;;;;;;;22.40;20.20;;;13.30;99.90;;;;;;4859139;29;20526;-51
2023/10/25 02:50:53;;;;;;;22.27;20.20;;;13.30;99.90;;;;;;4865989;29;20427;-50
2023/10/25 02:53:19;;;;;;;22.50;20.20;;;13.30;99.90;;;;;;4861007;29;20849;-52
2023/10/25 02:55:47;;;;;;;22.10;20.10;;;13.30;99.90;;;;;;4848002;29;20683;-50
2023/10/25 02:58:13;;;;;;;22.03;20.10;;;13.20;99.90;;;;;;4860492;29;20185;-50
2023/10/25 03:00:39;;;;;;;23.57;21.53;;;13.20;99.90;;;;;;4866143;29;20431;-48
2023/10/25 03:03:04;;;;;;;24.33;21.97;;;13.20;99.90;;;;;;4863567;29;20445;-50
2023/10/25 03:05:30;;;;;;;22.67;20.20;;;13.30;99.90;;;;;;4860768;29;20256;-49
2023/10/25 03:07:56;;;;;;;22.00;19.80;;;13.30;99.90;;;;;;4868916;29;20600;-50
2023/10/25 03:10:21;;;;;;;22.63;20.37;;;13.30;99.90;;;;;;4868137;29;20492;-52
2023/10/25 03:12:47;;;;;;;23.47;21.37;;;13.30;99.90;;;;;;4859807;29;20244;-51
2023/10/25 03:15:13;;;;;;;23.00;20.83;;;13.30;99.90;;;;;;4854969;29;20188;-51
2023/10/25 03:17:39;;;;;;;22.47;20.30;;;13.30;99.90;;;;;;4867972;29;20420;-51
2023/10/25 03:20:05;;;;;;;23.03;21.00;;;13.30;99.90;;;;;;4858603;29;20232;-48
2023/10/25 03:22:32;;;;;;;21.37;19.27;;;13.30;99.90;;;;;;4860946;29;20210;-51
2023/10/25 03:24:57;;;;;;;23.07;20.90;;;13.30;99.90;;;;;;4855978;29;20440;-49
2023/10/25 03:27:23;;;;;;;23.40;21.20;;;13.30;99.90;;;;;;4861842;29;20513;-51
2023/10/25 03:29:48;;;;;;;22.60;20.60;;;13.30;99.90;;;;;;4860092;29;20256;-52
2023/10/25 03:32:14;;;;;;;23.47;21.27;;;13.30;99.90;;;;;;4859633;29;21014;-52
2023/10/25 03:34:41;;;;;;;22.63;20.57;;;13.20;99.90;;;;;;4857135;29;20197;-45
2023/10/25 03:37:07;;;;;;;23.10;21.07;;;13.30;99.90;;;;;;4868255;29;20215;-51
2023/10/25 03:39:32;;;;;;;22.67;20.67;;;13.20;99.90;;;;;;4864508;29;21042;-46
2023/10/25 03:41:58;;;;;;;23.60;21.20;;;13.20;99.90;;;;;;4860139;29;20655;-50
2023/10/25 03:44:23;;;;;;;23.87;21.60;;;13.20;99.90;;;;;;4850652;29;20200;-51
2023/10/25 03:46:49;;;;;;;22.40;20.33;;;13.20;99.90;;;;;;4850806;29;20201;-46
2023/10/25 03:49:14;;;;;;;22.97;20.83;;;13.10;99.90;;;;;;4850638;29;20827;-52
2023/10/25 03:51:40;;;;;;;23.27;21.23;;;13.20;99.90;;;;;;4849967;29;20340;-47
2023/10/25 03:54:06;;;;;;;22.57;20.50;;;13.10;99.90;;;;;;4853952;29;20200;-53
2023/10/25 03:56:31;;;;;;;22.80;20.90;;;13.10;99.90;;;;;;4850437;29;20227;-53
2023/10/25 03:58:57;;;;;;;21.93;19.93;;;13.10;99.90;;;;;;4861792;29;20623;-45
2023/10/25 04:01:23;;;;;;;22.00;19.90;;;13.10;99.90;;;;;;4859904;29;20276;-49
2023/10/25 04:03:48;;;;;;;20.73;18.93;;;13.10;99.90;;;;;;4853411;29;20284;-48
2023/10/25 04:06:14;;;;;;;22.30;20.30;;;13.10;99.90;;;;;;4839325;29;20195;-51
2023/10/25 04:08:40;;;;;;;21.50;19.60;;;13.10;99.90;;;;;;4861993;29;20203;-50
2023/10/25 04:11:07;;;;;;;21.17;19.30;;;13.00;99.90;;;;;;4850259;29;20249;-50
2023/10/25 04:13:32;;;;;;;22.53;20.63;;;13.00;99.90;;;;;;4850023;29;20228;-52
2023/10/25 04:16:04;;;;;;;21.60;19.70;;;13.00;99.90;;;;;;4848208;29;20517;-53
2023/10/25 04:18:31;;;;;;;21.17;19.40;;;13.00;99.90;;;;;;4853495;29;20635;-48
2023/10/25 04:20:57;;;;;;;22.20;20.30;;;13.00;99.90;;;;;;4852962;29;20433;-47
2023/10/25 04:23:26;;;;;;;21.27;19.40;;;12.90;99.90;;;;;;4856505;29;20511;-50
2023/10/25 04:26:04;;;;;;;22.07;20.07;;;12.90;99.90;;;;;;4862235;29;20547;-50
2023/10/25 04:28:30;;;;;;;22.80;20.90;;;12.90;99.90;;;;;;4835839;29;20460;-46
2023/10/25 04:30:56;;;;;;;23.37;21.30;;;13.00;99.90;;;;;;4857628;29;20448;-47
2023/10/25 04:33:21;;;;;;;22.20;20.13;;;12.90;99.90;;;;;;4861359;29;20247;-50
2023/10/25 04:35:48;;;;;;;22.43;20.53;;;12.90;99.90;;;;;;4858704;29;20188;-48
2023/10/25 04:38:13;;;;;;;22.60;20.60;;;12.90;99.90;;;;;;4832631;29;20203;-49
2023/10/25 04:40:39;;;;;;;22.30;20.40;;;12.90;99.90;;;;;;4860596;29;20428;-48
2023/10/25 04:43:05;;;;;;;22.63;20.43;;;12.90;99.90;;;;;;4855894;29;20200;-49
2023/10/25 04:45:30;;;;;;;21.53;19.53;;;12.80;99.90;;;;;;4859013;29;21519;-50
2023/10/25 04:47:56;;;;;;;23.17;20.97;;;12.80;99.90;;;;;;4858688;29;20211;-46
2023/10/25 04:50:22;;;;;;;22.30;20.20;;;12.80;99.90;;;;;;4860135;29;20317;-50
2023/10/25 04:52:48;;;;;;;23.70;21.50;;;12.80;99.90;;;;;;4867298;29;20219;-48
2023/10/25 04:55:14;;;;;;;22.83;20.60;;;12.80;99.90;;;;;;4865775;29;20199;-49
2023/10/25 04:57:39;;;;;;;22.83;20.63;;;12.80;99.90;;;;;;4857229;29;20787;-50
2023/10/25 05:00:12;;;;;;;22.10;20.00;;;12.80;99.90;;;;;;4866374;29;20227;-49
2023/10/25 05:02:38;;;;;;;21.90;19.90;;;12.80;99.90;;;;;;4857385;29;21122;-50
2023/10/25 05:05:08;;;;;;;22.53;20.33;;;12.80;99.90;;;;;;4866206;29;20469;-52
2023/10/25 05:07:37;;;;;;;21.77;19.77;;;12.80;99.90;;;;;;4858172;29;20448;-46
2023/10/25 05:10:05;;;;;;;22.53;20.43;;;12.80;99.90;;;;;;4866665;29;20519;-49
2023/10/25 05:12:49;;;;;;;21.80;19.77;;;12.80;99.90;;;;;;4858626;29;20491;-43
2023/10/25 05:15:17;;;;;;;21.40;19.50;;;12.80;99.90;;;;;;4864160;29;20493;-54
2023/10/25 05:17:46;;;;;;;22.80;20.43;;;12.70;99.90;;;;;;4843247;29;20810;-43
2023/10/25 05:20:13;;;;;;;22.37;20.40;;;12.70;99.90;;;;;;4867058;29;20424;-41
2023/10/25 05:22:40;;;;;;;22.33;20.30;;;12.70;99.90;;;;;;4860739;29;21625;-41
2023/10/25 05:25:08;;;;;;;22.40;20.30;;;12.70;99.90;;;;;;4864841;29;20421;-41
2023/10/25 05:27:35;;;;;;;22.77;20.57;;;12.70;99.90;;;;;;4861693;29;20421;-42
2023/10/25 05:30:05;;;;;;;22.53;20.50;;;12.70;99.90;;;;;;4866231;29;20428;-44
2023/10/25 05:32:32;;;;;;;21.97;19.87;;;12.70;99.90;;;;;;4862414;29;20471;-45
2023/10/25 05:35:00;;;;;;;21.77;19.80;;;12.60;99.90;;;;;;4857568;29;20444;-42
2023/10/25 05:37:27;;;;;;;22.30;20.30;;;12.70;99.90;;;;;;4858991;29;20519;-46
2023/10/25 05:39:53;;;;;;;22.07;20.07;;;12.60;99.90;;;;;;4861234;29;21020;-42
2023/10/25 05:42:20;;;;;;;23.07;20.90;;;12.60;99.90;;;;;;4858768;29;20924;-41
2023/10/25 05:44:47;;;;;;;22.47;20.37;;;12.60;99.90;;;;;;4850963;29;20529;-41
2023/10/25 05:47:14;;;;;;;21.30;19.50;;;12.60;99.90;;;;;;4851792;29;20913;-42
2023/10/25 05:49:40;;;;;;;22.43;20.23;;;12.60;99.90;;;;;;4851311;29;20908;-39
2023/10/25 05:52:07;;;;;;;22.03;20.07;;;12.50;99.90;;;;;;4853045;29;20495;-41
2023/10/25 05:54:35;;;;;;;21.30;19.17;;;12.50;99.90;;;;;;4850411;29;20421;-42
2023/10/25 05:57:01;;;;;;;20.73;18.70;;;12.50;99.90;;;;;;4852957;29;21280;-42
2023/10/25 05:59:27;;;;;;;22.17;20.20;;;12.50;99.90;;;;;;4851450;29;20487;-43
2023/10/25 06:02:10;;;;;;;21.30;19.40;;;12.50;99.90;;;;;;4850147;29;21387;-45
2023/10/25 06:04:37;;;;;;;22.10;20.20;;;12.60;99.90;;;;;;4851213;29;20413;-44
2023/10/25 06:07:04;;;;;;;21.83;19.83;;;12.60;99.90;;;;;;4836482;29;20439;-42
2023/10/25 06:09:30;;;;;;;21.30;19.40;;;12.60;99.90;;;;;;4861987;29;20448;-41
2023/10/25 06:11:56;;;;;;;22.97;20.97;;;12.60;99.90;;;;;;4860264;29;20493;-45
2023/10/25 06:14:22;;;;;;;21.93;19.83;;;12.50;99.90;;;;;;4854659;29;20686;-43
2023/10/25 06:16:47;;;;;;;21.83;19.97;;;12.60;99.90;;;;;;4849785;29;20785;-46
2023/10/25 06:19:13;;;;;;;22.77;20.77;;;12.60;99.90;;;;;;4849166;29;20478;-43
2023/10/25 06:21:39;;;;;;;21.27;19.20;;;12.60;99.90;;;;;;4853367;29;20205;-40
2023/10/25 06:24:05;;;;;;;21.90;19.73;;;12.60;99.90;;;;;;4854558;29;20425;-41
2023/10/25 06:26:30;;;;;;;21.60;19.50;;;12.60;99.90;;;;;;4854923;29;20189;-43
2023/10/25 06:28:56;;;;;;;21.10;19.20;;;12.60;99.90;;;;;;4858284;29;20185;-43
2023/10/25 06:31:22;;;;;;;19.70;18.00;;;12.60;99.90;;;;;;4853714;29;20249;-42
2023/10/25 06:33:47;;;;;;;22.27;20.20;;;12.60;99.90;;;;;;4853849;29;20220;-41
2023/10/25 06:36:14;;;;;;;21.40;19.30;;;12.60;99.90;;;;;;4852401;29;21051;-42
2023/10/25 06:38:40;;;;;;;21.27;19.40;;;12.60;99.90;;;;;;4852639;29;21385;-41
2023/10/25 06:41:15;;;;;;;20.43;18.60;;;12.60;99.90;;;;;;4852155;29;20422;-44
2023/10/25 06:43:41;;;;;;;21.03;19.13;;;12.50;99.90;;;;;;4852339;29;20539;-41
2023/10/25 06:46:08;;;;;;;20.73;18.93;;;12.60;99.90;;;;;;4852647;29;21340;-42
2023/10/25 06:48:34;;;;;;;20.53;18.73;;;12.60;99.90;;;;;;4853319;29;20529;-43
2023/10/25 06:51:00;;;;;;;21.70;19.80;;;12.50;99.90;;;;;;4855817;29;20417;-41
2023/10/25 06:53:26;;;;;;;21.50;19.50;;;12.50;99.90;;;;;;4852712;29;20576;-42
2023/10/25 06:55:52;;;;;;;21.27;19.37;;;12.50;99.90;;;;;;4853333;29;20481;-40
2023/10/25 06:58:18;;;;;;;20.30;18.60;;;12.50;99.90;;;;;;4854009;29;20192;-41
2023/10/25 07:00:44;;;;;;;20.27;18.57;;;12.50;99.90;;;;;;4855255;29;20189;-41
2023/10/25 07:03:11;;;;;;;19.93;18.23;;;12.60;99.90;;;;;;4856498;29;20193;-43
2023/10/25 07:05:38;;;;;;;20.50;18.80;;;12.60;99.90;;;;;;4851147;29;20674;-41
2023/10/25 07:08:04;;;;;;;21.00;19.00;;;12.70;99.90;;;;;;4855706;29;20441;-41
2023/10/25 07:10:30;;;;;;;19.83;18.07;;;12.70;99.90;;;;;;4852177;29;20836;-43
2023/10/25 07:12:56;;;;;;;21.07;19.17;;;12.70;99.90;;;;;;4852983;29;20523;-39
2023/10/25 07:15:24;;;;;;;20.83;18.50;;;12.80;99.90;;;;;;4836742;29;20859;-40
2023/10/25 07:17:49;;;;;;;19.63;17.83;;;12.90;99.90;;;;;;4853488;29;20410;-42
2023/10/25 07:20:15;;;;;;;19.77;18.10;;;13.00;99.90;;;;;;4849496;29;20439;-40
2023/10/25 07:22:41;;;;;;;20.90;19.00;;;13.00;99.90;;;;;;4826233;29;20209;-40
2023/10/25 07:25:08;;;;;;;18.63;17.00;;;13.10;99.90;;;;;;4845050;29;20561;-39
2023/10/25 07:27:34;;;;;;;21.07;19.13;;;13.20;99.90;;;;;;4860884;29;20547;-43
2023/10/25 07:29:59;;;;;;;21.40;19.50;;;13.30;99.90;;;;;;4843992;29;20780;-41
2023/10/25 07:32:26;;;;;;;21.20;19.40;;;13.30;99.90;;;;;;4857529;29;20469;-43
2023/10/25 07:34:52;;;;;;;20.80;19.10;;;13.20;99.90;;;;;;4841183;29;20204;-41
2023/10/25 07:37:17;;;;;;;20.43;18.73;;;13.20;99.90;;;;;;4846505;29;20912;-41
2023/10/25 07:39:43;;;;;;;20.20;18.50;;;13.20;99.90;;;;;;4851063;29;20769;-43
2023/10/25 07:42:09;;;;;;;21.23;19.43;;;13.20;99.90;;;;;;4862039;29;21120;-41
2023/10/25 07:44:35;;;;;;;22.43;20.30;;;13.20;99.20;;;;;;4860943;29;20548;-43
2023/10/25 07:47:01;;;;;;;20.33;18.63;;;13.10;98.40;;;;;;4865448;29;20246;-43
2023/10/25 07:49:27;;;;;;;19.20;17.70;;;13.10;80.00;;;;;;4854996;29;20452;-46
2023/10/25 07:51:55;;;;;;;21.23;19.37;;;13.20;99.90;;;;;;4841965;29;21480;-43
2023/10/25 07:54:22;;;;;;;21.47;19.70;;;13.30;99.40;;;;;;4860940;29;20221;-41
2023/10/25 07:56:47;;;;;;;20.40;18.80;;;13.60;96.10;;;;;;4857365;29;20429;-41
2023/10/25 07:59:13;;;;;;;22.03;20.10;;;14.00;53.00;;;;;;4853994;29;20439;-43
2023/10/25 08:01:39;;;;;;;20.13;18.53;;;14.20;37.80;;;;;;4867448;29;20647;-41
2023/10/25 08:04:05;;;;;;;20.20;18.60;;;14.40;26.90;;;;;;4860814;29;20651;-40
2023/10/25 08:06:31;;;;;;;21.03;19.33;;;14.70;20.80;;;;;;4858173;29;20231;-44
2023/10/25 08:08:57;;;;;;;19.03;17.63;;;14.80;1.00;;;;;;4863731;29;20550;-43
2023/10/25 08:11:22;;;;;;;19.17;17.57;;;15.00;1.00;;;;;;4861756;29;20472;-41
2023/10/25 08:13:48;;;;;;;20.80;19.00;;;15.10;1.00;;;;;;4851122;29;20675;-42
2023/10/25 08:16:14;;;;;;;21.60;19.80;;;15.00;1.00;;;;;;4855736;29;20203;-42
2023/10/25 08:18:40;;;;;;;19.60;18.03;;;14.90;1.00;;;;;;4854305;29;20268;-42
2023/10/25 08:21:12;;;;;;;19.17;17.57;;;14.80;1.00;;;;;;4848020;29;20193;-42
2023/10/25 08:23:38;;;;;;;21.33;19.63;;;14.80;1.00;;;;;;4867149;29;20730;-41
2023/10/25 08:26:04;;;;;;;20.33;18.60;;;14.40;1.00;;;;;;4855108;29;20508;-43
2023/10/25 08:28:29;;;;;;;20.13;18.43;;;14.30;1.00;;;;;;4854297;29;20220;-42
2023/10/25 08:30:55;;;;;;;20.30;18.60;;;14.30;1.00;;;;;;4832732;29;20943;-42
2023/10/25 08:33:21;;;;;;;18.97;17.37;;;14.60;1.00;;;;;;4837867;29;20228;-42
2023/10/25 08:35:46;;;;;;;19.83;18.23;;;15.00;1.00;;;;;;4836305;29;20444;-43
2023/10/25 08:38:12;;;;;;;19.30;17.80;;;15.20;1.00;;;;;;4858477;29;20644;-42
2023/10/25 08:40:40;;;;;;;18.43;17.03;;;15.60;1.00;;;;;;4860684;29;20191;-41
2023/10/25 08:43:07;;;;;;;18.50;17.10;;;15.90;1.00;;;;;;4866313;29;20476;-43
2023/10/25 08:45:36;;;;;;;20.07;18.47;;;16.10;1.00;;;;;;4856672;29;20511;-43
2023/10/25 08:48:03;;;;;;;17.97;16.57;;;16.20;1.00;;;;;;4863796;29;21328;-45
2023/10/25 08:50:30;;;;;;;16.13;15.13;;;16.10;1.00;;;;;;4854528;29;20528;-43
2023/10/25 08:52:57;;;;;;;17.77;16.57;;;15.70;99.90;;;;;;4852307;29;20504;-42
2023/10/25 08:55:23;;;;;;;16.23;15.13;;;15.30;1.00;;;;;;4855409;29;20547;-42
2023/10/25 08:57:54;;;;;;;17.60;16.40;;;15.20;1.00;;;;;;4855905;29;20573;-43
2023/10/25 09:00:19;;;;;;;17.50;16.30;;;15.20;1.00;;;;;;4854318;29;20512;-44
2023/10/25 09:02:46;;;;;;;17.03;15.93;;;15.20;1.00;;;;;;4866564;29;20445;-42
2023/10/25 09:05:11;;;;;;;16.10;15.00;;;15.10;1.00;;;;;;4859732;29;20208;-43
2023/10/25 09:07:37;;;;;;;17.93;16.73;;;15.20;1.00;;;;;;4852825;29;20951;-41
2023/10/25 09:10:22;;;;;;;17.73;16.30;;;15.40;1.00;;;;;;4849600;29;20208;-41
2023/10/25 09:12:48;;;;;;;16.47;15.47;;;15.60;1.00;;;;;;4866223;29;20490;-41
2023/10/25 09:15:14;;;;;;;16.10;15.00;;;15.50;1.00;;;;;;4861511;29;20432;-43
2023/10/25 09:17:39;;;;;;;16.17;14.97;;;15.80;1.00;;;;;;4849741;29;20789;-44
2023/10/25 09:20:08;;;;;;;16.77;15.57;;;15.60;1.00;;;;;;4849538;29;20189;-41
2023/10/25 09:22:34;;;;;;;15.77;14.67;;;16.10;1.00;;;;;;4849126;29;20223;-43
2023/10/25 09:25:01;;;;;;;15.93;14.93;;;16.80;1.00;;;;;;4856303;29;20524;-46
2023/10/25 09:27:28;;;;;;;17.70;16.40;;;17.50;99.90;;;;;;4866247;29;20206;-44
2023/10/25 09:30:09;;;;;;;16.77;15.67;;;17.90;1.00;;;;;;4860643;29;20421;-44
2023/10/25 09:32:36;;;;;;;16.33;15.33;;;17.90;99.90;;;;;;4865700;29;20624;-44
2023/10/25 09:35:03;;;;;;;17.47;16.27;;;18.40;1.00;;;;;;4855292;29;20461;-43
2023/10/25 09:37:28;;;;;;;16.80;15.77;;;19.20;99.90;;;;;;4863172;29;20493;-45
2023/10/25 09:39:54;;;;;;;15.40;14.50;;;19.80;1.00;;;;;;4853105;29;20436;-43
2023/10/25 09:42:25;;;;;;;14.80;14.00;;;20.60;1.00;;;;;;4852134;29;20200;-42
2023/10/25 09:44:57;;;;;;;14.20;13.40;;;21.30;1.00;;;;;;4853114;29;20203;-46
2023/10/25 09:47:28;;;;;;;14.80;14.00;;;21.10;1.00;;;;;;4850399;29;20437;-43
2023/10/25 09:50:02;;;;;;;14.03;13.33;;;21.50;1.00;;;;;;4853471;29;21233;-41
2023/10/25 09:52:29;;;;;;;13.70;12.70;;;21.60;1.00;;;;;;4850415;29;20496;-42
2023/10/25 09:55:10;;;;;;;14.70;13.90;;;21.70;1.00;;;;;;4867587;29;21306;-42
2023/10/25 09:57:36;;;;;;;15.00;14.20;;;21.60;1.00;;;;;;4863873;29;20645;-43
2023/10/25 10:00:05;;;;;;;14.97;14.17;;;20.70;1.00;;;;;;4858999;29;20463;-43
2023/10/25 10:02:44;;;;;;;15.30;14.50;;;20.60;1.00;;;;;;4859853;29;20528;-44
2023/10/25 10:05:17;;;;;;;15.20;14.20;;;20.50;1.00;;;;;;4860442;29;20923;-43
2023/10/25 10:08:05;;;;;;;14.50;13.80;;;20.80;1.00;;;;;;4851994;29;20452;-41
2023/10/25 10:10:39;;;;;;;14.80;14.00;;;20.80;1.00;;;;;;4858418;29;20493;-41
2023/10/25 10:13:15;;;;;;;14.87;14.07;;;21.00;1.00;;;;;;4820354;29;20478;-46
2023/10/25 10:16:04;;;;;;;13.67;12.97;;;21.30;1.00;;;;;;4830177;29;20426;-43
2023/10/25 10:18:42;;;;;;;13.77;13.07;;;21.90;1.00;;;;;;4821979;29;20446;-46
2023/10/25 10:21:14;;;;;;;14.03;13.23;;;22.70;1.00;;;;;;4827199;29;20426;-41
2023/10/25 10:23:53;;;;;;;14.43;13.70;;;22.90;1.00;;;;;;4831984;29;20654;-44
2023/10/25 10:26:44;;;;;;;13.10;12.40;;;22.90;99.90;;;;;;4826420;29;20470;-42
2023/10/25 10:29:31;;;;;;;13.20;12.50;;;22.50;1.00;;;;;;4832152;29;20829;-46
2023/10/25 10:32:04;;;;;;;13.23;12.53;;;22.10;1.00;;;;;;4820882;29;20481;-45
2023/10/25 10:34:58;;;;;;;14.30;13.53;;;21.90;1.00;;;;;;4821677;29;20442;-43
2023/10/25 10:37:26;;;;;;;13.53;12.83;;;22.10;1.00;;;;;;4814860;29;20451;-42
2023/10/25 10:39:58;;;;;;;13.07;12.13;;;21.90;1.00;;;;;;4818261;29;20435;-42
2023/10/25 10:42:30;;;;;;;12.40;11.80;;;22.10;1.00;;;;;;4817310;29;20430;-42
2023/10/25 10:45:00;;;;;;;12.73;12.13;;;22.30;99.90;;;;;;4818084;29;20524;-41
2023/10/25 10:47:32;;;;;;;12.53;11.93;;;22.30;1.00;;;;;;4815715;29;20434;-41
2023/10/25 10:50:07;;;;;;;12.97;12.37;;;22.50;99.90;;;;;;4817644;29;20431;-41
2023/10/25 10:52:33;;;;;;;12.77;12.23;;;23.00;99.90;;;;;;4814915;29;20473;-43
2023/10/25 10:54:59;;;;;;;12.83;12.23;;;23.00;99.90;;;;;;4816495;29;20453;-41
2023/10/25 10:57:25;;;;;;;12.57;11.97;;;22.50;99.90;;;;;;4815626;29;20430;-43
2023/10/25 10:59:51;;;;;;;12.90;12.30;;;22.80;99.90;;;;;;4818348;29;20209;-46
2023/10/25 11:02:17;;;;;;;12.60;12.00;;;23.40;99.90;;;;;;4820587;29;20458;-43
2023/10/25 11:04:43;;;;;;;12.27;11.70;;;23.90;99.90;;;;;;4818640;29;20514;-44
2023/10/25 11:07:09;;;;;;;12.97;12.37;;;24.30;99.90;;;;;;4815549;29;20501;-42
2023/10/25 11:09:35;;;;;;;12.63;11.83;;;23.60;99.90;;;;;;4815567;29;20438;-45
2023/10/25 11:12:14;;;;;;;13.53;12.93;;;23.80;99.90;;;;;;4839855;29;20664;-46
2023/10/25 11:14:44;;;;;;;12.20;11.70;;;23.90;99.90;;;;;;4855956;29;20179;-42
2023/10/25 11:17:10;;;;;;;13.30;12.60;;;23.70;99.90;;;;;;4852191;29;20471;-42
2023/10/25 11:19:36;;;;;;;13.33;12.73;;;22.80;99.90;;;;;;4853445;29;20422;-42
2023/10/25 11:22:02;;;;;;;11.70;11.20;;;22.60;99.90;;;;;;4851864;29;20200;-41
2023/10/25 11:24:27;;;;;;;12.57;12.07;;;22.50;99.90;;;;;;4854796;29;20417;-41
2023/10/25 11:26:53;;;;;;;13.30;12.50;;;22.50;99.90;;;;;;4853614;29;20192;-44
2023/10/25 11:29:20;;;;;;;13.23;12.57;;;22.50;99.90;;;;;;4855219;29;20185;-43
2023/10/25 11:31:49;;;;;;;11.83;11.33;;;22.60;99.90;;;;;;4841640;29;20448;-45
2023/10/25 11:34:22;;;;;;;12.23;11.73;;;22.80;99.90;;;;;;4857364;29;20448;-45
2023/10/25 11:36:48;;;;;;;13.17;12.57;;;23.00;99.90;;;;;;4851398;29;20822;-45
2023/10/25 11:39:14;;;;;;;11.47;10.97;;;23.40;99.90;;;;;;4852433;29;20496;-45
2023/10/25 11:41:42;;;;;;;12.23;11.63;;;23.60;99.90;;;;;;4852333;29;20417;-46
2023/10/25 11:44:08;;;;;;;12.17;11.67;;;23.80;99.90;;;;;;4853852;29;20189;-42
2023/10/25 11:46:38;;;;;;;12.47;11.97;;;23.50;99.90;;;;;;4852763;29;20468;-44
2023/10/25 11:49:05;;;;;;;11.77;11.17;;;21.90;99.90;;;;;;4854672;29;20508;-46
2023/10/25 11:51:35;;;;;;;11.10;10.53;;;22.30;99.90;;;;;;4854140;29;20780;-46
2023/10/25 11:54:04;;;;;;;12.03;11.53;;;22.50;99.90;;;;;;4855907;29;20525;-45
2023/10/25 11:56:30;;;;;;;11.40;10.90;;;23.10;99.90;;;;;;4858695;29;20480;-43
2023/10/25 11:58:56;;;;;;;11.67;11.17;;;23.50;99.90;;;;;;4855852;29;20971;-43
2023/10/25 12:01:22;;;;;;;11.37;10.77;;;24.00;99.90;;;;;;4854238;29;20436;-46
2023/10/25 12:03:47;;;;;;;11.50;11.00;;;24.20;99.90;;;;;;4853015;29;20249;-43
2023/10/25 12:06:13;;;;;;;12.00;11.50;;;24.20;99.90;;;;;;4851485;29;20184;-42
2023/10/25 12:08:40;;;;;;;12.30;11.80;;;24.10;99.90;;;;;;4851255;29;20240;-41
2023/10/25 12:11:10;;;;;;;12.17;11.67;;;23.80;99.90;;;;;;4850775;29;20878;-44
2023/10/25 12:13:37;;;;;;;11.77;11.27;;;23.50;99.90;;;;;;4852807;29;20837;-42
2023/10/25 12:16:03;;;;;;;11.70;11.20;;;23.40;99.90;;;;;;4851493;29;21483;-42
2023/10/25 12:18:33;;;;;;;11.90;11.40;;;23.50;99.90;;;;;;4851306;29;20441;-43
2023/10/25 12:21:08;;;;;;;12.10;11.60;;;23.70;99.90;;;;;;4857542;29;20213;-43
2023/10/25 12:23:34;;;;;;;12.53;11.93;;;23.70;99.90;;;;;;4855624;29;20536;-47
2023/10/25 12:25:59;;;;;;;12.70;12.10;;;23.50;99.90;;;;;;4867552;29;20663;-43
2023/10/25 12:28:25;;;;;;;11.23;10.83;;;23.30;99.90;;;;;;4862646;29;20200;-42